createdAt,value
2022-12-12T00:03:14.700Z,2.13
2022-12-12T00:08:18.412Z,2.28
2022-12-12T00:13:23.485Z,2.30
2022-12-12T00:18:26.879Z,2.41
2022-12-12T00:23:30.335Z,2.27
2022-12-12T00:28:35.606Z,2.67
2022-12-12T00:33:39.262Z,2.60
2022-12-12T00:38:42.870Z,2.58
2022-12-12T00:43:48.055Z,2.67
2022-12-12T00:48:51.867Z,2.77
2022-12-12T00:53:55.478Z,2.80
2022-12-12T00:59:00.449Z,2.82
2022-12-12T01:04:04.986Z,2.86
2022-12-12T01:09:08.547Z,2.84
2022-12-12T01:14:13.457Z,2.82
2022-12-12T01:19:16.778Z,3.03
2022-12-12T01:24:20.120Z,2.81
2022-12-12T01:29:25.333Z,2.90
2022-12-12T01:34:28.979Z,2.70
2022-12-12T01:39:32.692Z,2.83
2022-12-12T01:44:44.773Z,2.85
2022-12-12T01:49:53.371Z,2.97
2022-12-12T01:54:59.877Z,2.87
2022-12-12T02:00:07.492Z,3.02
2022-12-12T02:05:20.501Z,2.95
2022-12-12T02:10:24.185Z,3.03
2022-12-12T02:15:39.847Z,2.80
2022-12-12T02:20:59.648Z,2.97
2022-12-12T02:26:42.744Z,3.14
2022-12-12T02:31:53.816Z,3.12
2022-12-12T02:37:06.631Z,2.93
2022-12-12T02:42:19.746Z,3.09
2022-12-12T02:47:28.130Z,3.16
2022-12-12T02:52:32.118Z,3.08
2022-12-12T02:57:35.701Z,3.10
2022-12-12T03:03:25.919Z,3.12
2022-12-12T03:08:46.495Z,3.19
2022-12-12T03:13:58.935Z,3.23
2022-12-12T03:19:13.557Z,3.27
2022-12-12T03:24:24.046Z,3.24
2022-12-12T03:29:31.206Z,3.26
2022-12-12T03:34:41.071Z,3.32
2022-12-12T03:39:49.441Z,3.29
2022-12-12T03:45:02.323Z,3.26
2022-12-12T03:50:16.431Z,3.42
2022-12-12T03:55:26.649Z,3.29
2022-12-12T04:00:34.125Z,3.38
2022-12-12T04:06:05.457Z,3.30
2022-12-12T04:11:36.623Z,3.32
2022-12-12T04:16:44.238Z,3.38
2022-12-12T04:22:15.379Z,3.36
2022-12-12T04:27:27.516Z,3.42
2022-12-12T04:32:35.839Z,3.33
2022-12-12T04:37:44.813Z,3.38
2022-12-12T04:42:55.064Z,3.36
2022-12-12T04:48:00.349Z,3.38
2022-12-12T04:53:16.554Z,3.33
2022-12-12T04:58:22.429Z,3.34
2022-12-12T05:03:37.613Z,3.26
2022-12-12T05:08:44.306Z,3.20
2022-12-12T05:13:47.744Z,3.21
2022-12-12T05:18:51.392Z,3.20
2022-12-12T05:23:56.318Z,6.49
2022-12-12T05:29:05.292Z,6.67
2022-12-12T05:34:10.436Z,6.37
2022-12-12T05:39:15.449Z,6.37
2022-12-12T05:44:18.934Z,6.64
2022-12-12T05:49:22.754Z,6.56
2022-12-12T05:54:27.707Z,6.62
2022-12-12T05:59:31.471Z,6.49
2022-12-12T06:04:34.985Z,6.46
2022-12-12T06:09:40.732Z,6.17
2022-12-12T06:14:44.194Z,6.32
2022-12-12T06:19:47.778Z,6.27
2022-12-12T06:24:53.198Z,6.18
2022-12-12T06:29:56.847Z,6.30
2022-12-12T06:35:00.230Z,6.42
2022-12-12T06:40:05.807Z,6.56
2022-12-12T06:45:09.735Z,6.49
2022-12-12T06:50:15.014Z,6.29
2022-12-12T06:55:21.675Z,6.38
2022-12-12T07:00:25.072Z,6.26
2022-12-12T07:05:28.479Z,6.19
2022-12-12T07:10:33.465Z,6.05
2022-12-12T07:15:36.989Z,6.34
2022-12-12T07:20:41.851Z,6.15
2022-12-12T07:25:46.925Z,6.12
2022-12-12T07:30:50.648Z,5.89
2022-12-12T07:35:59.471Z,6.26
2022-12-12T07:41:07.383Z,6.07
2022-12-12T07:46:12.688Z,6.49
2022-12-12T07:51:17.172Z,6.31
2022-12-12T07:56:22.416Z,6.55
2022-12-12T08:01:30.040Z,6.10
2022-12-12T08:06:33.953Z,6.05
2022-12-12T08:11:46.077Z,6.25
2022-12-12T08:16:49.959Z,6.26
2022-12-12T08:21:53.598Z,6.36
2022-12-12T08:26:58.838Z,6.55
2022-12-12T08:32:04.282Z,6.57
2022-12-12T08:37:07.872Z,6.34
2022-12-12T08:42:13.630Z,6.48
2022-12-12T08:47:17.326Z,6.44
2022-12-12T08:52:20.677Z,6.49
2022-12-12T08:57:26.750Z,6.37
2022-12-12T09:02:30.358Z,6.50
2022-12-12T09:07:34.150Z,6.54
2022-12-12T09:12:41.855Z,6.67
2022-12-12T09:17:45.775Z,6.32
2022-12-12T09:22:49.185Z,6.53
2022-12-12T09:27:54.254Z,6.64
2022-12-12T09:32:57.579Z,6.36
2022-12-12T09:38:01.345Z,6.30
2022-12-12T09:43:06.603Z,6.66
2022-12-12T09:48:10.836Z,6.48
2022-12-12T09:53:17.222Z,6.55
2022-12-12T09:58:28.013Z,6.49
2022-12-12T10:03:43.916Z,6.26
2022-12-12T10:08:57.706Z,6.34
2022-12-12T10:14:06.340Z,6.46
2022-12-12T10:19:16.304Z,6.11
2022-12-12T10:24:31.761Z,5.92
2022-12-12T10:29:41.426Z,6.07
2022-12-12T10:34:55.231Z,6.42
2022-12-12T10:40:10.924Z,6.10
2022-12-12T10:45:46.773Z,6.38
2022-12-12T10:50:53.059Z,6.19
2022-12-12T10:56:00.878Z,6.38
2022-12-12T11:01:12.294Z,6.32
2022-12-12T11:06:20.268Z,6.37
2022-12-12T11:11:25.486Z,6.61
2022-12-12T11:16:41.039Z,6.38
2022-12-12T11:21:45.016Z,6.38
2022-12-12T11:26:54.002Z,6.32
2022-12-12T11:32:00.648Z,5.88
2022-12-12T11:37:04.792Z,6.01
2022-12-12T11:42:20.506Z,5.87
2022-12-12T11:47:27.830Z,5.96
2022-12-12T11:52:33.084Z,6.04
2022-12-12T11:57:53.114Z,6.11
2022-12-12T12:03:28.607Z,5.88
2022-12-12T12:08:45.422Z,6.27
2022-12-12T12:14:05.187Z,6.21
2022-12-12T12:19:18.451Z,6.34
2022-12-12T12:24:46.194Z,5.96
2022-12-12T12:30:18.517Z,6.13
2022-12-12T12:35:31.048Z,6.12
2022-12-12T12:40:46.050Z,6.43
2022-12-12T12:45:54.323Z,6.25
2022-12-12T12:51:06.330Z,5.83
2022-12-12T12:56:25.145Z,5.81
2022-12-12T13:01:36.484Z,5.90
2022-12-12T13:06:47.712Z,5.77
2022-12-12T13:11:56.061Z,5.92
2022-12-12T13:17:07.042Z,5.87
2022-12-12T13:22:16.757Z,5.77
2022-12-12T13:27:25.568Z,6.31
2022-12-12T13:32:57.863Z,5.56
2022-12-12T13:38:04.534Z,5.68
2022-12-12T13:43:10.393Z,5.87
2022-12-12T13:48:46.301Z,6.10
2022-12-12T13:54:14.082Z,5.80
2022-12-12T13:59:31.303Z,5.74
2022-12-12T14:04:37.165Z,5.59
2022-12-12T14:09:48.652Z,5.73
2022-12-12T14:14:57.260Z,5.72
2022-12-12T14:20:02.119Z,5.79
2022-12-12T14:25:09.912Z,5.42
2022-12-12T14:30:19.189Z,5.53
2022-12-12T14:35:33.000Z,5.54
2022-12-12T14:40:44.793Z,5.60
2022-12-12T14:45:56.400Z,5.36
2022-12-12T14:51:10.675Z,5.14
2022-12-12T14:56:18.042Z,5.32
2022-12-12T15:01:33.897Z,5.31
2022-12-12T15:06:39.466Z,5.49
2022-12-12T15:11:44.921Z,5.60
2022-12-12T15:16:53.426Z,5.43
2022-12-12T15:21:58.426Z,5.39
2022-12-12T15:27:03.206Z,5.48
2022-12-12T15:32:09.583Z,5.50
2022-12-12T15:37:21.066Z,5.24
2022-12-12T15:42:26.225Z,5.35
2022-12-12T15:47:29.922Z,5.41
2022-12-12T15:52:33.355Z,5.16
2022-12-12T15:57:48.792Z,5.44
2022-12-12T16:03:20.102Z,5.12
2022-12-12T16:08:36.866Z,5.51
2022-12-12T16:13:45.171Z,5.29
2022-12-12T16:18:48.796Z,5.36
2022-12-12T16:23:52.291Z,5.18
2022-12-12T16:28:57.347Z,5.66
2022-12-12T16:34:03.791Z,5.39
2022-12-12T16:39:07.582Z,5.25
2022-12-12T16:44:12.452Z,5.43
2022-12-12T16:49:15.920Z,5.10
2022-12-12T16:54:19.666Z,5.20
2022-12-12T16:59:24.697Z,5.06
2022-12-12T17:04:28.914Z,5.28
2022-12-12T17:09:32.817Z,5.14
2022-12-12T17:14:37.826Z,5.10
2022-12-12T17:19:41.461Z,5.45
2022-12-12T17:24:44.954Z,5.24
2022-12-12T17:29:50.025Z,5.40
2022-12-12T17:34:53.439Z,5.27
2022-12-12T17:39:57.161Z,5.54
2022-12-12T17:45:20.698Z,5.32
2022-12-12T17:50:24.241Z,5.17
2022-12-12T17:55:51.866Z,5.12
2022-12-12T18:00:52.707Z,5.15
2022-12-12T18:05:56.168Z,5.16
2022-12-12T18:10:59.880Z,5.13
2022-12-12T18:16:05.065Z,5.04
2022-12-12T18:21:12.872Z,5.00
2022-12-12T18:26:22.288Z,5.29
2022-12-12T18:31:27.550Z,5.05
2022-12-12T18:36:32.696Z,5.20
2022-12-12T18:41:37.150Z,5.16
2022-12-12T18:46:43.811Z,5.09
2022-12-12T18:51:48.580Z,5.06
2022-12-12T18:56:52.193Z,4.84
2022-12-12T19:01:57.418Z,5.62
2022-12-12T19:07:01.035Z,5.22
2022-12-12T19:12:05.082Z,5.08
2022-12-12T19:17:10.206Z,5.20
2022-12-12T19:22:39.978Z,4.73
2022-12-12T19:27:37.502Z,4.64
2022-12-12T19:32:42.373Z,4.84
2022-12-12T19:37:45.863Z,4.86
2022-12-12T19:42:49.207Z,4.83
2022-12-12T19:47:54.212Z,4.94
2022-12-12T19:52:57.558Z,4.84
2022-12-12T19:58:02.911Z,5.06
2022-12-12T20:03:08.006Z,5.03
2022-12-12T20:08:11.649Z,4.93
2022-12-12T20:13:15.086Z,4.99
2022-12-12T20:18:20.096Z,5.01
2022-12-12T20:23:23.610Z,4.89
2022-12-12T20:28:27.341Z,4.86
2022-12-12T20:33:32.239Z,4.80
2022-12-12T20:38:37.802Z,5.01
2022-12-12T20:43:42.199Z,4.72
2022-12-12T20:48:48.177Z,5.00
2022-12-12T20:53:52.558Z,4.85
2022-12-12T20:58:57.849Z,4.84
2022-12-12T21:04:04.541Z,5.05
2022-12-12T21:09:10.625Z,4.94
2022-12-12T21:14:14.274Z,4.85
2022-12-12T21:19:21.175Z,5.02
2022-12-12T21:24:24.705Z,4.89
2022-12-12T21:29:28.297Z,5.13
2022-12-12T21:34:33.025Z,5.16
2022-12-12T21:39:36.650Z,5.02
2022-12-12T21:44:45.513Z,5.20
2022-12-12T21:49:50.905Z,5.13
2022-12-12T21:54:54.362Z,4.87
2022-12-12T21:59:57.986Z,4.82
2022-12-12T22:05:02.842Z,5.06
2022-12-12T22:10:11.028Z,4.95
2022-12-12T22:15:16.455Z,4.88
2022-12-12T22:20:21.701Z,5.01
2022-12-12T22:25:24.879Z,4.95
2022-12-12T22:30:28.497Z,5.10
2022-12-12T22:35:33.364Z,4.83
2022-12-12T22:40:36.704Z,5.07
2022-12-12T22:45:40.122Z,4.67
2022-12-12T22:50:45.116Z,5.08
2022-12-12T22:55:48.543Z,4.96
2022-12-12T23:00:52.097Z,5.02
2022-12-12T23:06:03.585Z,5.15
2022-12-12T23:11:09.703Z,4.96
2022-12-12T23:16:15.924Z,4.85
2022-12-12T23:21:24.637Z,4.95
2022-12-12T23:26:30.634Z,5.03
2022-12-12T23:31:37.967Z,4.93
2022-12-12T23:36:44.217Z,4.98
2022-12-12T23:41:47.882Z,5.05
2022-12-12T23:46:51.944Z,5.00
2022-12-12T23:51:59.304Z,4.72
2022-12-12T23:57:03.508Z,4.80
